Time;durP1;ratioP1;P1;durP2;ratioP2;P2;SDS_P1;SDS_P2;PMS_P1;PMS_P2;Temp;Humidity;BMP_temperature;BMP_pressure;BME280_temperature;BME280_humidity;BME280_pressure;Samples;Min_cycle;Max_cycle;Signal;HPM_P1;HPM_P2
2022/06/25 00:03:08;;;;;;;;;;;;;;;18.33;71.19;99566.53;6273363;28;19920;-85
2022/06/25 00:06:12;;;;;;;;;;;;;;;18.30;72.69;99577.44;6274610;28;19928;-85
2022/06/25 00:09:21;;;;;;;;;;;;;;;18.25;71.50;99576.22;6256816;28;20316;-84
2022/06/25 00:12:33;;;;;;;;;;;;;;;18.18;72.36;99567.25;6273495;28;20298;-85
2022/06/25 00:15:35;;;;;;;;;;;;;;;18.14;70.08;99566.75;6273136;28;19920;-85
2022/06/25 00:18:37;;;;;;;;;;;;;;;18.15;73.28;99567.56;6287421;28;20351;-78
2022/06/25 00:21:40;;;;;;;;;;;;;;;18.10;73.79;99566.22;6268216;28;19974;-78
2022/06/25 00:24:45;;;;;;;;;;;;;;;18.06;70.53;99562.22;6270886;28;19920;-78
2022/06/25 00:27:48;;;;;;;;;;;;;;;17.94;71.16;99560.81;6255209;28;20291;-78
2022/06/25 00:30:51;;;;;;;;;;;;;;;17.78;73.03;99565.94;6272418;28;20341;-83
2022/06/25 00:33:52;;;;;;;;;;;;;;;17.72;74.50;99554.16;6256041;28;19967;-84
2022/06/25 00:36:53;;;;;;;;;;;;;;;17.69;75.57;99551.84;6256194;28;19924;-85
2022/06/25 00:39:53;;;;;;;;;;;;;;;17.66;74.13;99550.31;6272225;28;19920;-78
2022/06/25 00:42:57;;;;;;;;;;;;;;;17.62;76.05;99548.13;6271804;28;20018;-84
2022/06/25 00:46:12;;;;;;;;;;;;;;;17.59;75.81;99553.72;6286689;28;20379;-84
2022/06/25 00:49:12;;;;;;;;;;;;;;;17.58;74.77;99557.34;6273823;28;19921;-84
2022/06/25 00:52:14;;;;;;;;;;;;;;;17.53;73.47;99553.34;6272095;28;19928;-84
2022/06/25 00:55:19;;;;;;;;;;;;;;;17.49;78.30;99556.44;6273669;28;19920;-84
2022/06/25 00:58:21;;;;;;;;;;;;;;;17.42;76.78;99548.31;6272419;28;20342;-84
2022/06/25 01:01:23;;;;;;;;;;;;;;;17.43;77.52;99554.41;6272347;28;19925;-84
2022/06/25 01:04:24;;;;;;;;;;;;;;;17.33;75.52;99555.28;6272320;28;19921;-84
2022/06/25 01:07:24;;;;;;;;;;;;;;;17.28;75.84;99556.72;6289034;28;20398;-84
2022/06/25 01:10:25;;;;;;;;;;;;;;;17.20;77.39;99562.72;6288905;28;20004;-84
2022/06/25 01:13:27;;;;;;;;;;;;;;;17.08;76.37;99551.56;6270070;28;19920;-78
2022/06/25 01:16:28;;;;;;;;;;;;;;;17.11;76.72;99564.44;6271801;28;19931;-78
2022/06/25 01:19:29;;;;;;;;;;;;;;;17.01;75.83;99547.88;6265953;28;20383;-79
2022/06/25 01:22:34;;;;;;;;;;;;;;;16.93;78.45;99539.88;6271983;28;19920;-84
2022/06/25 01:25:35;;;;;;;;;;;;;;;16.92;80.53;99560.13;6272129;28;19921;-84
2022/06/25 01:28:36;;;;;;;;;;;;;;;16.79;76.72;99549.03;6271293;28;19921;-78
2022/06/25 01:31:37;;;;;;;;;;;;;;;16.75;78.82;99552.13;6286110;28;19927;-78
2022/06/25 01:34:38;;;;;;;;;;;;;;;16.70;83.84;99557.84;6269731;28;20006;-79
2022/06/25 01:37:39;;;;;;;;;;;;;;;16.55;79.19;99554.00;6286190;28;19927;-78
2022/06/25 01:40:42;;;;;;;;;;;;;;;16.55;80.59;99552.19;6269612;28;19939;-78
2022/06/25 01:43:44;;;;;;;;;;;;;;;16.49;80.76;99550.13;6286495;28;19924;-83
2022/06/25 01:46:44;;;;;;;;;;;;;;;16.50;79.97;99560.53;6271723;28;19948;-83
2022/06/25 01:49:45;;;;;;;;;;;;;;;16.42;80.94;99563.03;6271655;28;19921;-84
2022/06/25 01:52:46;;;;;;;;;;;;;;;16.47;81.16;99558.19;6271941;28;20400;-84
2022/06/25 01:55:47;;;;;;;;;;;;;;;16.49;84.68;99555.38;6271756;28;20363;-84
2022/06/25 01:58:48;;;;;;;;;;;;;;;16.46;81.86;99553.06;6271653;28;19927;-84
2022/06/25 02:01:49;;;;;;;;;;;;;;;16.40;82.28;99553.63;6271642;28;19921;-83
2022/06/25 02:04:49;;;;;;;;;;;;;;;16.40;81.65;99557.09;6275697;28;19921;-79
2022/06/25 02:07:50;;;;;;;;;;;;;;;16.38;82.89;99551.13;6274070;28;19974;-79
2022/06/25 02:10:51;;;;;;;;;;;;;;;16.28;84.87;99555.59;6273715;28;19920;-78
2022/06/25 02:13:52;;;;;;;;;;;;;;;16.27;85.35;99553.94;6291343;28;19925;-78
2022/06/25 02:16:53;;;;;;;;;;;;;;;16.29;85.16;99557.28;6273582;28;20301;-79
2022/06/25 02:19:53;;;;;;;;;;;;;;;16.24;nan;99570.00;6273516;28;19921;-79
2022/06/25 02:22:54;;;;;;;;;;;;;;;16.04;82.52;99564.78;6273502;28;19920;-78
2022/06/25 02:25:55;;;;;;;;;;;;;;;16.06;85.84;99569.91;6275963;28;19921;-84
2022/06/25 02:28:58;;;;;;;;;;;;;;;16.06;85.79;99569.91;6275586;28;19967;-85
2022/06/25 02:31:59;;;;;;;;;;;;;;;16.13;85.19;99588.59;6275546;28;19921;-84
2022/06/25 02:34:59;;;;;;;;;;;;;;;16.10;82.92;99582.66;6276853;28;19975;-84
2022/06/25 02:38:00;;;;;;;;;;;;;;;15.98;84.16;99581.16;6275496;28;19952;-84
2022/06/25 02:41:01;;;;;;;;;;;;;;;16.00;88.50;99579.22;6275578;28;20015;-84
2022/06/25 02:44:01;;;;;;;;;;;;;;;16.03;85.76;99578.09;6275362;28;20437;-85
2022/06/25 02:47:02;;;;;;;;;;;;;;;16.02;85.01;99582.53;6275249;28;19948;-85
2022/06/25 02:50:03;;;;;;;;;;;;;;;16.08;84.43;99579.34;6275248;28;19968;-85
2022/06/25 02:53:04;;;;;;;;;;;;;;;16.06;82.88;99589.16;6276378;28;19944;-85
2022/06/25 02:59:25;;;;;;;;;;;;;;;16.03;84.00;99599.13;6276238;28;20266;-85
2022/06/25 03:02:26;;;;;;;;;;;;;;;15.98;84.70;99596.94;6275065;28;19921;-84
2022/06/25 03:05:27;;;;;;;;;;;;;;;15.93;85.84;99596.50;6274098;28;19920;-84
2022/06/25 03:08:28;;;;;;;;;;;;;;;16.02;86.33;99594.81;6274912;28;20394;-84
2022/06/25 03:11:31;;;;;;;;;;;;;;;16.03;88.98;99604.41;6290234;28;19928;-78
2022/06/25 03:14:32;;;;;;;;;;;;;;;16.05;82.35;99605.91;6289273;28;19924;-78
2022/06/25 03:17:33;;;;;;;;;;;;;;;16.07;87.11;99603.97;6272208;28;19955;-79
2022/06/25 03:20:34;;;;;;;;;;;;;;;16.05;82.60;99605.09;6288693;28;19927;-78
2022/06/25 03:23:34;;;;;;;;;;;;;;;16.04;81.65;99595.53;6273610;28;19920;-84
2022/06/25 03:26:36;;;;;;;;;;;;;;;16.02;82.75;99600.94;6273890;28;19969;-78
2022/06/25 03:29:36;;;;;;;;;;;;;;;15.99;82.09;99603.84;6271902;28;19920;-78
2022/06/25 03:32:39;;;;;;;;;;;;;;;16.03;84.05;99604.41;6271790;28;19920;-79
2022/06/25 03:35:40;;;;;;;;;;;;;;;15.93;82.04;99601.75;6273520;28;20395;-84
2022/06/25 03:38:41;;;;;;;;;;;;;;;16.00;83.75;99604.66;6289572;28;19921;-78
2022/06/25 03:41:43;;;;;;;;;;;;;;;16.02;83.61;99614.09;6271710;28;19936;-79
2022/06/25 03:44:45;;;;;;;;;;;;;;;16.03;81.61;99613.13;6287738;28;19921;-79
2022/06/25 03:47:50;;;;;;;;;;;;;;;16.02;82.69;99610.63;6273802;28;19928;-84
2022/06/25 03:50:50;;;;;;;;;;;;;;;16.02;82.28;99613.25;6273822;28;19920;-84
2022/06/25 03:53:51;;;;;;;;;;;;;;;16.04;81.23;99617.44;6273839;28;19924;-84
2022/06/25 03:56:54;;;;;;;;;;;;;;;16.07;81.94;99618.94;6272621;28;20388;-78
2022/06/25 03:59:55;;;;;;;;;;;;;;;16.11;83.12;99623.78;6273032;28;19921;-84
2022/06/25 04:02:56;;;;;;;;;;;;;;;16.15;84.18;99619.06;6287992;28;20287;-78
2022/06/25 04:05:57;;;;;;;;;;;;;;;16.15;83.95;99628.78;6270922;28;20371;-78
2022/06/25 04:08:58;;;;;;;;;;;;;;;16.15;82.78;99624.34;6271068;28;19921;-78
2022/06/25 04:11:58;;;;;;;;;;;;;;;16.16;82.24;99623.34;6270866;28;19921;-78
2022/06/25 04:14:59;;;;;;;;;;;;;;;16.22;84.15;99619.34;6270967;28;19927;-78
2022/06/25 04:17:59;;;;;;;;;;;;;;;16.28;85.20;99631.94;6270635;28;19925;-78
2022/06/25 04:21:01;;;;;;;;;;;;;;;16.29;79.91;99623.91;6289573;28;19963;-85
2022/06/25 04:24:01;;;;;;;;;;;;;;;16.39;76.66;99630.94;6272172;28;19974;-84
2022/06/25 04:27:02;;;;;;;;;;;;;;;16.50;76.59;99636.88;6272071;28;20303;-84
2022/06/25 04:30:03;;;;;;;;;;;;;;;16.60;78.16;99636.06;6255242;28;19921;-78
2022/06/25 04:33:05;;;;;;;;;;;;;;;16.71;76.01;99631.44;6270583;28;19959;-78
2022/06/25 04:36:06;;;;;;;;;;;;;;;16.79;76.12;99622.00;6270457;28;19921;-78
2022/06/25 04:39:09;;;;;;;;;;;;;;;16.92;76.86;99625.16;6286980;28;19921;-78
2022/06/25 04:42:10;;;;;;;;;;;;;;;17.03;73.33;99632.88;6286983;28;20299;-78
2022/06/25 04:45:11;;;;;;;;;;;;;;;17.13;71.61;99627.53;6287763;28;19928;-85
2022/06/25 04:48:11;;;;;;;;;;;;;;;17.23;73.12;99628.31;6272913;28;19925;-84
2022/06/25 04:51:12;;;;;;;;;;;;;;;17.33;72.26;99628.28;6289284;28;19920;-85
2022/06/25 04:54:15;;;;;;;;;;;;;;;17.43;71.54;99623.78;6272658;28;19920;-85
2022/06/25 04:57:17;;;;;;;;;;;;;;;17.62;70.96;99625.47;6272444;28;19943;-83
2022/06/25 05:00:18;;;;;;;;;;;;;;;17.75;69.29;99634.81;6272453;28;20019;-84
2022/06/25 05:03:19;;;;;;;;;;;;;;;17.89;69.79;99639.59;6272345;28;19970;-83
2022/06/25 05:06:20;;;;;;;;;;;;;;;18.00;68.91;99626.19;6288995;28;19927;-83
2022/06/25 05:09:21;;;;;;;;;;;;;;;18.16;69.60;99628.16;6272348;28;19921;-85
2022/06/25 05:15:42;;;;;;;;;;;;;;;18.55;68.88;99626.91;6273673;28;20284;-85
2022/06/25 05:18:44;;;;;;;;;;;;;;;18.72;66.38;99637.44;6271895;28;19921;-84
2022/06/25 05:21:46;;;;;;;;;;;;;;;18.98;64.16;99643.72;6271740;28;20016;-84
2022/06/25 05:24:47;;;;;;;;;;;;;;;19.22;64.72;99632.44;6271970;28;19920;-84
2022/06/25 05:27:48;;;;;;;;;;;;;;;19.40;65.16;99625.22;6271985;28;19920;-87
2022/06/25 05:30:49;;;;;;;;;;;;;;;19.51;63.16;99619.59;6288586;28;19925;-82
2022/06/25 05:33:50;;;;;;;;;;;;;;;19.65;62.67;99626.09;6255067;28;19921;-85
2022/06/25 05:36:53;;;;;;;;;;;;;;;19.86;58.42;99635.44;6272683;28;19927;-86
2022/06/25 05:39:54;;;;;;;;;;;;;;;20.04;57.94;99636.09;6276727;28;19927;-86
2022/06/25 05:42:55;;;;;;;;;;;;;;;20.26;58.54;99642.56;6293376;28;20011;-88
2022/06/25 05:45:56;;;;;;;;;;;;;;;20.43;58.38;99643.38;6276503;28;20371;-85
2022/06/25 05:48:56;;;;;;;;;;;;;;;20.64;57.22;99657.97;6276566;28;19967;-85
2022/06/25 05:51:57;;;;;;;;;;;;;;;20.76;54.44;99655.78;6275938;28;19966;-79
2022/06/25 05:54:57;;;;;;;;;;;;;;;20.94;53.71;99651.09;6257740;28;19927;-85
2022/06/25 05:57:58;;;;;;;;;;;;;;;21.15;52.74;99650.53;6277500;28;19920;-85
2022/06/25 06:00:59;;;;;;;;;;;;;;;21.34;53.88;99651.94;6276044;28;19974;-84
2022/06/25 06:04:02;;;;;;;;;;;;;;;21.54;49.92;99660.34;6274133;28;19921;-78
2022/06/25 06:07:04;;;;;;;;;;;;;;;21.77;48.61;99655.03;6273878;28;19920;-79
2022/06/25 06:10:05;;;;;;;;;;;;;;;21.99;47.33;99658.72;6273999;28;19920;-78
2022/06/25 06:13:07;;;;;;;;;;;;;;;22.21;45.60;99657.03;6275145;28;20299;-78
2022/06/25 06:16:08;;;;;;;;;;;;;;;22.44;46.22;99665.00;6273790;28;19974;-78
2022/06/25 06:19:08;;;;;;;;;;;;;;;22.62;45.36;99667.34;6275258;28;19924;-85
2022/06/25 06:22:12;;;;;;;;;;;;;;;22.85;44.41;99659.28;6275667;28;19920;-85
2022/06/25 06:25:13;;;;;;;;;;;;;;;23.10;42.94;99659.88;6276342;28;19921;-83
2022/06/25 06:28:14;;;;;;;;;;;;;;;23.36;45.42;99666.53;6261336;28;19921;-86
2022/06/25 06:31:14;;;;;;;;;;;;;;;23.56;46.21;99665.97;6250141;28;19928;-82
2022/06/25 06:34:15;;;;;;;;;;;;;;;23.79;42.71;99663.19;6274555;28;20015;-85
2022/06/25 06:37:20;;;;;;;;;;;;;;;24.01;43.77;99672.84;6276033;28;20337;-82
2022/06/25 06:40:22;;;;;;;;;;;;;;;24.24;43.32;99664.63;6274914;28;19921;-83
2022/06/25 06:43:22;;;;;;;;;;;;;;;24.36;39.06;99672.09;6274389;28;20063;-79
2022/06/25 06:46:24;;;;;;;;;;;;;;;24.55;41.44;99673.31;6256440;28;19967;-79
2022/06/25 06:49:27;;;;;;;;;;;;;;;24.82;39.65;99675.13;6255352;28;20268;-78
2022/06/25 06:52:30;;;;;;;;;;;;;;;25.09;38.32;99672.63;6252610;28;19953;-79
2022/06/25 06:55:30;;;;;;;;;;;;;;;25.38;34.61;99668.88;6274057;28;19920;-78
2022/06/25 06:58:32;;;;;;;;;;;;;;;25.60;35.41;99677.59;6273889;28;20105;-78
2022/06/25 07:01:36;;;;;;;;;;;;;;;25.90;35.37;99671.94;6273916;28;19921;-80
2022/06/25 07:04:39;;;;;;;;;;;;;;;26.22;37.34;99662.31;6273665;28;19932;-80
2022/06/25 07:07:40;;;;;;;;;;;;;;;26.54;35.36;99668.69;6272408;28;20048;-79
2022/06/25 07:10:44;;;;;;;;;;;;;;;26.84;33.11;99659.41;6272286;28;20276;-79
2022/06/25 07:13:45;;;;;;;;;;;;;;;26.94;32.04;99654.44;6273646;28;19963;-79
2022/06/25 07:16:46;;;;;;;;;;;;;;;27.39;34.74;99659.06;6272410;28;19948;-80
2022/06/25 07:19:52;;;;;;;;;;;;;;;27.27;34.14;99656.22;6273296;28;19974;-84
2022/06/25 07:22:53;;;;;;;;;;;;;;;26.97;31.44;99656.69;6256664;28;20019;-78
2022/06/25 07:25:53;;;;;;;;;;;;;;;26.83;32.99;99657.75;6272866;28;20047;-81
2022/06/25 07:28:57;;;;;;;;;;;;;;;26.96;31.51;99657.75;6256621;28;19921;-85
2022/06/25 07:31:57;;;;;;;;;;;;;;;27.32;31.47;99654.56;6275095;28;19920;-84
2022/06/25 07:34:59;;;;;;;;;;;;;;;27.81;29.69;99657.59;6257320;28;19932;-84
2022/06/25 07:37:59;;;;;;;;;;;;;;;28.22;30.94;99656.28;6273483;28;19921;-85
2022/06/25 07:41:03;;;;;;;;;;;;;;;28.59;29.62;99658.28;6256973;28;19921;-84
2022/06/25 07:44:06;;;;;;;;;;;;;;;28.60;26.99;99655.38;6273341;28;20013;-82
2022/06/25 07:47:06;;;;;;;;;;;;;;;28.85;29.01;99662.56;6256932;28;19921;-77
2022/06/25 07:53:27;;;;;;;;;;;;;;;29.11;29.62;99653.41;6271132;28;19935;-80
2022/06/25 07:56:28;;;;;;;;;;;;;;;29.43;28.52;99664.81;6271411;28;19921;-82
2022/06/25 07:59:28;;;;;;;;;;;;;;;29.83;27.13;99660.78;6253989;28;19920;-82
2022/06/25 08:02:29;;;;;;;;;;;;;;;29.92;24.68;99662.09;6271197;28;19932;-81
2022/06/25 08:05:33;;;;;;;;;;;;;;;29.70;26.36;99659.06;6253604;28;20295;-85
2022/06/25 08:08:34;;;;;;;;;;;;;;;30.23;27.62;99663.66;6253465;28;19921;-80
2022/06/25 08:11:35;;;;;;;;;;;;;;;30.52;26.33;99661.97;6270779;28;19921;-82
2022/06/25 08:14:35;;;;;;;;;;;;;;;30.67;25.93;99656.09;6254336;28;19963;-83
2022/06/25 08:17:38;;;;;;;;;;;;;;;30.58;24.50;99654.81;6254177;28;19925;-83
2022/06/25 08:20:43;;;;;;;;;;;;;;;29.69;27.69;99654.72;6252325;28;20005;-81
2022/06/25 08:23:45;;;;;;;;;;;;;;;29.15;27.44;99648.41;6255350;28;20368;-83
2022/06/25 08:26:45;;;;;;;;;;;;;;;29.82;26.84;99645.69;6262161;28;19927;-81
2022/06/25 08:29:46;;;;;;;;;;;;;;;30.22;26.93;99643.19;6260934;28;20437;-85
2022/06/25 08:32:50;;;;;;;;;;;;;;;30.53;24.84;99649.31;6251165;28;19920;-83
2022/06/25 08:35:50;;;;;;;;;;;;;;;30.35;26.40;99647.53;6265820;28;19920;-87
2022/06/25 08:38:54;;;;;;;;;;;;;;;29.50;26.35;99651.28;6256105;28;19920;-87
2022/06/25 08:41:54;;;;;;;;;;;;;;;29.38;25.26;99640.47;6267060;28;19965;-80
2022/06/25 08:44:55;;;;;;;;;;;;;;;30.16;30.24;99646.78;6260634;28;19921;-85
2022/06/25 08:47:58;;;;;;;;;;;;;;;30.68;27.10;99643.44;6287553;28;19960;-84
2022/06/25 08:50:59;;;;;;;;;;;;;;;30.86;25.61;99640.59;6271675;28;19924;-83
2022/06/25 08:54:06;;;;;;;;;;;;;;;30.85;24.88;99641.69;6270873;28;19924;-85
2022/06/25 08:57:08;;;;;;;;;;;;;;;31.11;26.42;99642.22;6271232;28;19924;-84
2022/06/25 09:00:10;;;;;;;;;;;;;;;31.11;25.10;99645.75;6271311;28;19920;-85
2022/06/25 09:03:12;;;;;;;;;;;;;;;31.40;24.46;99650.34;6271749;28;19921;-89
2022/06/25 09:06:14;;;;;;;;;;;;;;;31.41;23.34;99646.59;6255034;28;19996;-83
2022/06/25 09:09:16;;;;;;;;;;;;;;;31.60;24.61;99644.53;6271216;28;19944;-84
2022/06/25 09:12:17;;;;;;;;;;;;;;;31.81;24.23;99651.13;6275340;28;20235;-89
2022/06/25 09:15:19;;;;;;;;;;;;;;;31.95;23.12;99648.94;6263430;28;19928;-83
2022/06/25 09:18:20;;;;;;;;;;;;;;;32.36;23.62;99657.72;6278949;28;19921;-83
2022/06/25 09:21:21;;;;;;;;;;;;;;;32.53;21.91;99653.94;6262890;28;19924;-87
2022/06/25 09:24:22;;;;;;;;;;;;;;;32.17;23.32;99654.47;6262150;28;20389;-79
2022/06/25 09:27:38;;;;;;;;;;;;;;;32.40;21.95;99648.88;6279977;28;20020;-82
2022/06/25 09:30:56;;;;;;;;;;;;;;;32.01;23.80;99653.38;6301575;28;20287;-81
2022/06/25 09:34:01;;;;;;;;;;;;;;;32.45;22.30;99654.38;6283814;28;19920;-83
2022/06/25 09:37:20;;;;;;;;;;;;;;;32.39;23.43;99654.50;6300712;28;19920;-83
2022/06/25 09:40:25;;;;;;;;;;;;;;;32.64;23.29;99644.13;6300944;28;20191;-83
2022/06/25 09:43:29;;;;;;;;;;;;;;;32.64;22.85;99648.72;6284362;28;20298;-83
2022/06/25 09:46:30;;;;;;;;;;;;;;;32.84;22.24;99646.25;6301086;28;19920;-78
2022/06/25 09:49:31;;;;;;;;;;;;;;;33.25;22.58;99641.38;6302582;28;19924;-89
2022/06/25 09:52:32;;;;;;;;;;;;;;;33.32;24.05;99642.03;6285796;28;19921;-90
2022/06/25 09:55:34;;;;;;;;;;;;;;;33.49;24.28;99641.94;6302349;28;19931;-82
2022/06/25 09:58:34;;;;;;;;;;;;;;;33.55;22.42;99648.22;6285338;28;19943;-87
2022/06/25 10:01:35;;;;;;;;;;;;;;;33.89;23.45;99638.03;6291655;28;20375;-84
2022/06/25 10:04:38;;;;;;;;;;;;;;;33.97;20.76;99638.59;6279451;28;19928;-88
2022/06/25 10:08:04;;;;;;;;;;;;;;;34.18;21.00;99643.13;6279848;28;19921;-89
2022/06/25 10:11:06;;;;;;;;;;;;;;;33.01;21.93;99632.72;6278926;28;20424;-82
2022/06/25 10:14:07;;;;;;;;;;;;;;;32.69;22.06;99630.69;6278628;28;19943;-85
2022/06/25 10:17:08;;;;;;;;;;;;;;;32.74;23.38;99627.25;6278673;28;19931;-83
2022/06/25 10:20:10;;;;;;;;;;;;;;;33.24;21.30;99623.56;6278898;28;19920;-85
2022/06/25 10:23:12;;;;;;;;;;;;;;;34.15;20.78;99626.59;6278336;28;20390;-82
2022/06/25 10:26:12;;;;;;;;;;;;;;;33.80;20.51;99623.31;6276170;28;19931;-82
2022/06/25 10:29:23;;;;;;;;;;;;;;;33.57;22.77;99623.63;6291314;28;20003;-82
2022/06/25 10:32:25;;;;;;;;;;;;;;;33.03;24.86;99619.78;6275278;28;19920;-83
2022/06/25 10:35:32;;;;;;;;;;;;;;;32.77;24.06;99610.53;6273969;28;19924;-83
2022/06/25 10:38:36;;;;;;;;;;;;;;;32.88;24.24;99609.56;6274121;28;19932;-82
2022/06/25 10:45:29;;;;;;;;;;;;;;;32.61;23.41;99601.41;6287777;28;19920;-82
2022/06/25 10:48:29;;;;;;;;;;;;;;;32.59;23.07;99600.84;6273680;28;19946;-83
2022/06/25 10:51:35;;;;;;;;;;;;;;;33.17;23.30;99609.41;6273966;28;19944;-84
2022/06/25 10:54:37;;;;;;;;;;;;;;;33.42;24.80;99600.78;6273853;28;19921;-82
2022/06/25 10:57:38;;;;;;;;;;;;;;;33.02;22.00;99593.81;6275047;28;19927;-83
2022/06/25 11:00:49;;;;;;;;;;;;;;;33.49;22.88;99589.75;6272868;28;19920;-83
2022/06/25 11:03:56;;;;;;;;;;;;;;;32.78;21.00;99589.72;6272855;28;19928;-83
2022/06/25 11:07:10;;;;;;;;;;;;;;;32.58;20.80;99585.72;6273613;28;19920;-82
2022/06/25 11:10:13;;;;;;;;;;;;;;;33.53;20.87;99583.56;6275002;28;19959;-80
2022/06/25 11:13:16;;;;;;;;;;;;;;;33.84;20.86;99580.34;6273685;28;19967;-80
2022/06/25 11:16:18;;;;;;;;;;;;;;;33.40;20.79;99575.88;6273836;28;19925;-80
2022/06/25 11:19:19;;;;;;;;;;;;;;;32.87;21.06;99580.13;6273202;28;19924;-80
2022/06/25 11:22:20;;;;;;;;;;;;;;;32.71;21.25;99573.72;6272812;28;19920;-81
2022/06/25 11:28:53;;;;;;;;;;;;;;;32.81;21.66;99570.34;6271937;28;19920;-80
2022/06/25 11:31:54;;;;;;;;;;;;;;;33.09;21.60;99567.44;6271863;28;20264;-80
2022/06/25 11:35:02;;;;;;;;;;;;;;;33.82;22.17;99572.47;6271650;28;19951;-81
2022/06/25 11:38:03;;;;;;;;;;;;;;;34.23;20.89;99558.44;6271788;28;19926;-81
2022/06/25 11:41:04;;;;;;;;;;;;;;;33.07;21.35;99550.63;6272426;28;20295;-80
2022/06/25 11:44:05;;;;;;;;;;;;;;;33.94;20.88;99539.81;6256702;28;19928;-80
2022/06/25 11:47:07;;;;;;;;;;;;;;;34.22;24.30;99541.38;6274246;28;19921;-80
2022/06/25 11:50:11;;;;;;;;;;;;;;;34.30;19.65;99550.88;6256477;28;19942;-79
2022/06/25 11:53:15;;;;;;;;;;;;;;;34.59;22.74;99545.06;6256609;28;20303;-82
2022/06/25 11:56:16;;;;;;;;;;;;;;;34.79;22.25;99545.19;6256719;28;19924;-81
2022/06/25 11:59:24;;;;;;;;;;;;;;;34.69;19.69;99539.72;6280732;28;19974;-81
2022/06/25 12:02:24;;;;;;;;;;;;;;;34.53;21.43;99530.69;6270419;28;19920;-81
2022/06/25 12:05:25;;;;;;;;;;;;;;;34.82;20.10;99530.28;6270940;28;19975;-82
2022/06/25 12:08:28;;;;;;;;;;;;;;;34.63;18.98;99525.31;6254827;28;19943;-84
2022/06/25 12:11:29;;;;;;;;;;;;;;;35.10;23.95;99513.53;6269656;28;19920;-83
2022/06/25 12:14:33;;;;;;;;;;;;;;;35.33;20.65;99507.91;6253725;28;20280;-85
2022/06/25 12:17:35;;;;;;;;;;;;;;;35.25;19.32;99504.66;6271891;28;20405;-82
2022/06/25 12:20:53;;;;;;;;;;;;;;;34.99;22.15;99497.56;6271691;28;20007;-81
2022/06/25 12:23:58;;;;;;;;;;;;;;;34.34;22.23;99486.22;6270856;28;19928;-79
2022/06/25 12:27:00;;;;;;;;;;;;;;;34.60;20.33;99489.84;6254396;28;19920;-85
2022/06/25 12:30:01;;;;;;;;;;;;;;;34.48;21.18;99485.44;6271253;28;20393;-82
2022/06/25 12:33:05;;;;;;;;;;;;;;;34.40;22.58;99490.56;6271452;28;19921;-83
2022/06/25 12:36:17;;;;;;;;;;;;;;;34.12;22.55;99496.09;6270612;28;19932;-83
2022/06/25 12:39:34;;;;;;;;;;;;;;;33.64;21.93;99499.84;6270641;28;19931;-81
2022/06/25 12:42:34;;;;;;;;;;;;;;;32.93;22.56;99506.19;6270598;28;20117;-85
2022/06/25 12:45:36;;;;;;;;;;;;;;;32.57;22.94;99502.25;6271466;28;19960;-81
2022/06/25 12:48:37;;;;;;;;;;;;;;;32.64;25.93;99511.81;6270865;28;19921;-82
2022/06/25 12:51:39;;;;;;;;;;;;;;;32.19;22.98;99493.91;6271590;28;20368;-81
2022/06/25 12:54:45;;;;;;;;;;;;;;;32.82;26.35;99494.44;6270960;28;19927;-80
2022/06/25 12:57:45;;;;;;;;;;;;;;;32.74;25.62;99497.59;6270165;28;20019;-81
2022/06/25 13:00:46;;;;;;;;;;;;;;;32.92;26.46;99491.03;6253539;28;19925;-81
2022/06/25 13:03:48;;;;;;;;;;;;;;;32.94;24.97;99491.59;6271322;28;19920;-83
2022/06/25 13:06:48;;;;;;;;;;;;;;;33.02;22.47;99493.81;6270054;28;20398;-85
2022/06/25 13:09:51;;;;;;;;;;;;;;;32.96;25.89;99489.44;6237128;28;20001;-86
2022/06/25 13:12:53;;;;;;;;;;;;;;;32.72;25.64;99497.84;6270536;28;19920;-79
2022/06/25 13:15:55;;;;;;;;;;;;;;;32.70;24.86;99488.38;6253639;28;19931;-80
2022/06/25 13:18:56;;;;;;;;;;;;;;;32.85;23.91;99493.13;6253531;28;19920;-81
2022/06/25 13:21:57;;;;;;;;;;;;;;;33.07;24.06;99493.91;6269992;28;20529;-81
2022/06/25 13:24:59;;;;;;;;;;;;;;;33.19;24.54;99491.03;6270170;28;19920;-84
2022/06/25 13:27:59;;;;;;;;;;;;;;;33.14;24.29;99492.91;6246084;28;19928;-83
2022/06/25 13:31:02;;;;;;;;;;;;;;;32.53;23.38;99489.25;6246525;28;19925;-85
2022/06/25 13:34:02;;;;;;;;;;;;;;;32.66;24.46;99493.47;6247797;28;20338;-81
2022/06/25 13:37:03;;;;;;;;;;;;;;;32.17;23.76;99489.84;6271772;28;19924;-82
2022/06/25 13:40:05;;;;;;;;;;;;;;;32.39;28.04;99484.44;6254130;28;20366;-86
2022/06/25 13:43:06;;;;;;;;;;;;;;;32.41;25.87;99491.25;6270164;28;19921;-87
2022/06/25 13:46:09;;;;;;;;;;;;;;;32.29;25.38;99491.34;6253644;28;19927;-85
2022/06/25 13:49:10;;;;;;;;;;;;;;;32.26;28.22;99493.72;6270863;28;19920;-81
2022/06/25 13:52:11;;;;;;;;;;;;;;;32.16;27.50;99494.41;6270881;28;19921;-80
2022/06/25 13:55:12;;;;;;;;;;;;;;;31.85;24.25;99495.81;6270797;28;19920;-82
2022/06/25 13:58:13;;;;;;;;;;;;;;;31.34;23.89;99490.44;6272290;28;19974;-82
2022/06/25 14:01:14;;;;;;;;;;;;;;;31.81;28.29;99497.38;6258897;28;19974;-81
2022/06/25 14:04:17;;;;;;;;;;;;;;;31.98;26.63;99491.97;6275006;28;19986;-80
2022/06/25 14:07:18;;;;;;;;;;;;;;;32.04;28.78;99489.13;6258803;28;20283;-82
2022/06/25 14:10:19;;;;;;;;;;;;;;;31.95;25.23;99484.38;6258606;28;19924;-80
2022/06/25 14:13:20;;;;;;;;;;;;;;;31.92;25.36;99489.19;6258500;28;20341;-83
2022/06/25 14:16:23;;;;;;;;;;;;;;;31.76;25.35;99486.53;6258447;28;19927;-84
2022/06/25 14:19:24;;;;;;;;;;;;;;;31.71;23.94;99492.66;6242081;28;19924;-83
2022/06/25 14:22:24;;;;;;;;;;;;;;;31.66;26.34;99485.28;6274806;28;20436;-83
2022/06/25 14:25:26;;;;;;;;;;;;;;;31.67;25.21;99472.63;6241422;28;19974;-84
2022/06/25 14:28:27;;;;;;;;;;;;;;;31.58;24.07;99474.94;6276194;28;20355;-82
2022/06/25 14:31:29;;;;;;;;;;;;;;;31.61;26.90;99482.53;6274317;28;20405;-83
2022/06/25 14:34:29;;;;;;;;;;;;;;;31.58;25.18;99479.50;6274314;28;20364;-83
2022/06/25 14:44:09;;;;;;;;;;;;;;;31.19;24.70;99485.56;6274446;28;19921;-84
2022/06/25 14:47:11;;;;;;;;;;;;;;;31.24;24.62;99480.28;6274204;28;20367;-80
2022/06/25 14:50:14;;;;;;;;;;;;;;;31.23;26.80;99477.81;6240411;28;20025;-78
2022/06/25 14:53:17;;;;;;;;;;;;;;;31.22;25.07;99485.09;6274264;28;19927;-80
2022/06/25 14:56:17;;;;;;;;;;;;;;;31.14;27.45;99482.81;6273014;28;19921;-80
2022/06/25 14:59:18;;;;;;;;;;;;;;;31.03;25.56;99483.66;6239850;28;19927;-79
2022/06/25 15:02:19;;;;;;;;;;;;;;;30.90;26.44;99490.16;6273091;28;19921;-82
2022/06/25 15:05:23;;;;;;;;;;;;;;;30.89;26.82;99497.44;6256410;28;20398;-86
2022/06/25 15:08:24;;;;;;;;;;;;;;;30.85;27.48;99522.38;6273791;28;19920;-82
2022/06/25 15:11:27;;;;;;;;;;;;;;;30.27;27.62;99524.09;6273582;28;19966;-85
2022/06/25 15:14:28;;;;;;;;;;;;;;;29.93;29.22;99518.50;6274658;28;19925;-86
2022/06/25 15:17:30;;;;;;;;;;;;;;;29.54;29.87;99515.38;6274612;28;19925;-81
2022/06/25 15:20:32;;;;;;;;;;;;;;;29.40;30.47;99509.38;6256380;28;19978;-83
2022/06/25 15:23:35;;;;;;;;;;;;;;;29.13;30.61;99511.66;6256141;28;19955;-86
2022/06/25 15:26:35;;;;;;;;;;;;;;;28.98;31.73;99513.91;6240080;28;19921;-82
2022/06/25 15:29:36;;;;;;;;;;;;;;;28.76;30.27;99517.06;6255912;28;19928;-78
2022/06/25 15:32:37;;;;;;;;;;;;;;;28.62;30.55;99526.31;6255209;28;20752;-82
2022/06/25 15:35:38;;;;;;;;;;;;;;;28.53;30.44;99531.19;6254745;28;20379;-80
2022/06/25 15:38:39;;;;;;;;;;;;;;;28.49;31.51;99524.59;6272317;28;19924;-83
2022/06/25 15:41:40;;;;;;;;;;;;;;;28.18;31.16;99517.50;6255678;28;19921;-78
2022/06/25 15:46:11;;;;;;;7.88;1.00;;;;;;;28.17;32.77;99530.09;6367568;27;20715;-70
2022/06/25 15:49:12;;;;;;;10.07;1.13;;;;;;;28.11;32.12;99521.06;6333065;28;20046;-70
2022/06/25 15:52:13;;;;;;;3.13;1.00;;;;;;;28.20;32.83;99520.78;6332870;28;20082;-71
2022/06/25 15:55:14;;;;;;;11.55;1.52;;;;;;;28.22;33.11;99518.69;6368128;28;20427;-71
2022/06/25 15:58:15;;;;;;;7.63;1.50;;;;;;;28.05;32.68;99513.91;6349879;28;20035;-71
2022/06/25 16:01:16;;;;;;;8.50;1.13;;;;;;;28.00;32.61;99508.38;6349897;28;20036;-71
2022/06/25 16:04:17;;;;;;;;;;;;;;;28.07;33.68;99511.00;6350612;28;20040;-71
2022/06/25 16:07:18;;;;;;;3.83;1.30;;;;;;;28.18;33.60;99512.94;6349682;28;19920;-71
2022/06/25 16:10:19;;;;;;;5.53;1.20;;;;;;;28.10;32.97;99508.69;6349547;28;20040;-71
2022/06/25 16:13:20;;;;;;;7.18;1.13;;;;;;;28.12;33.63;99505.78;6332548;28;20481;-71